createdAt,value
2019-04-26T00:00:56.283Z,11.40
2019-04-26T00:03:33.446Z,11.30
2019-04-26T00:06:01.565Z,11.70
2019-04-26T00:08:29.318Z,11.60
2019-04-26T00:11:16.095Z,11.70
2019-04-26T00:14:12.610Z,11.50
2019-04-26T00:17:04.664Z,11.60
2019-04-26T00:19:32.786Z,11.70
2019-04-26T00:22:00.926Z,11.30
2019-04-26T00:24:29.195Z,11.60
2019-04-26T00:26:57.133Z,11.80
2019-04-26T00:29:24.861Z,11.70
2019-04-26T00:31:53.344Z,11.90
2019-04-26T00:34:21.709Z,11.80
2019-04-26T00:36:49.669Z,12.10
2019-04-26T00:39:18.215Z,12.20
2019-04-26T00:41:46.617Z,12.30
2019-04-26T00:44:14.876Z,11.70
2019-04-26T00:46:47.111Z,11.90
2019-04-26T00:49:17.081Z,11.80
2019-04-26T00:51:45.493Z,11.60
2019-04-26T00:54:15.551Z,11.70
2019-04-26T00:56:43.590Z,11.70
2019-04-26T00:59:15.155Z,11.60
2019-04-26T01:01:48.217Z,11.80
2019-04-26T01:04:17.082Z,11.60
2019-04-26T01:06:46.875Z,11.90
2019-04-26T01:09:15.936Z,11.90
2019-04-26T01:11:43.790Z,11.50
2019-04-26T01:14:11.688Z,11.80
2019-04-26T01:16:39.599Z,11.90
2019-04-26T01:19:10.601Z,11.60
2019-04-26T01:21:45.156Z,11.70
2019-04-26T01:24:14.374Z,11.90
2019-04-26T01:26:43.202Z,11.70
2019-04-26T01:29:13.757Z,11.70
2019-04-26T01:32:07.310Z,11.60
2019-04-26T01:34:35.922Z,11.60
2019-04-26T01:37:03.998Z,11.90
2019-04-26T01:39:33.020Z,11.60
2019-04-26T01:42:09.584Z,11.60
2019-04-26T01:45:10.780Z,11.60
2019-04-26T01:47:39.287Z,11.60
2019-04-26T01:50:07.669Z,11.90
2019-04-26T01:52:35.724Z,11.70
2019-04-26T01:55:05.038Z,11.60
2019-04-26T01:57:33.320Z,11.60
2019-04-26T02:00:14.583Z,11.60
2019-04-26T02:02:49.713Z,11.70
2019-04-26T02:05:22.672Z,11.90
2019-04-26T02:07:52.880Z,11.60
2019-04-26T02:10:24.123Z,11.60
2019-04-26T02:12:54.266Z,11.30
2019-04-26T02:15:27.081Z,12.00
2019-04-26T02:17:57.003Z,11.60
2019-04-26T02:21:22.053Z,11.60
2019-04-26T02:24:04.881Z,11.60
2019-04-26T02:26:34.938Z,11.60
2019-04-26T02:29:07.908Z,11.30
2019-04-26T02:31:37.725Z,11.40
2019-04-26T02:34:06.479Z,11.50
2019-04-26T02:36:53.047Z,11.40
2019-04-26T02:39:19.298Z,11.20
2019-04-26T02:41:50.031Z,11.30
2019-04-26T02:44:22.099Z,11.10
2019-04-26T02:47:26.682Z,11.20
2019-04-26T02:50:03.016Z,11.30
2019-04-26T02:52:46.639Z,10.80
2019-04-26T02:55:46.855Z,10.90
2019-04-26T02:58:15.951Z,10.90
2019-04-26T03:00:45.207Z,10.90
2019-04-26T03:03:13.955Z,10.80
2019-04-26T03:05:43.458Z,10.90
2019-04-26T03:08:17.484Z,11.00
2019-04-26T03:11:11.869Z,10.90
2019-04-26T03:14:01.721Z,10.40
2019-04-26T03:16:45.123Z,10.50
2019-04-26T03:19:56.929Z,10.40
2019-04-26T03:23:20.012Z,10.00
2019-04-26T03:26:26.183Z,10.60
2019-04-26T03:29:15.328Z,10.50
2019-04-26T03:32:22.341Z,10.50
2019-04-26T03:35:21.168Z,10.50
2019-04-26T03:38:16.289Z,10.50
2019-04-26T03:41:02.896Z,10.20
2019-04-26T03:44:04.273Z,10.20
2019-04-26T03:46:55.881Z,10.60
2019-04-26T03:50:10.607Z,10.20
2019-04-26T03:53:38.274Z,10.20
2019-04-26T03:56:56.514Z,10.50
2019-04-26T03:59:40.723Z,10.20
2019-04-26T04:02:39.264Z,10.30
2019-04-26T04:05:31.579Z,10.40
2019-04-26T04:08:02.664Z,10.20
2019-04-26T04:10:49.216Z,10.30
2019-04-26T04:13:53.305Z,10.50
2019-04-26T04:17:17.915Z,10.30
2019-04-26T04:21:01.360Z,10.60
2019-04-26T04:24:04.971Z,10.50
2019-04-26T04:27:01.278Z,10.50
2019-04-26T04:29:54.989Z,10.30
2019-04-26T04:32:49.650Z,10.50
2019-04-26T04:35:20.858Z,10.50
2019-04-26T04:38:08.360Z,10.60
2019-04-26T04:41:15.626Z,10.40
2019-04-26T04:44:02.154Z,10.40
2019-04-26T04:47:25.797Z,10.60
2019-04-26T04:50:18.638Z,10.20
2019-04-26T04:53:25.030Z,10.60
2019-04-26T04:56:37.614Z,10.80
2019-04-26T04:59:10.482Z,10.50
2019-04-26T05:02:21.191Z,10.90
2019-04-26T05:05:45.255Z,10.60
2019-04-26T05:08:37.898Z,10.90
2019-04-26T05:11:16.436Z,10.50
2019-04-26T05:14:10.268Z,10.80
2019-04-26T05:17:30.248Z,10.80
2019-04-26T05:20:37.809Z,10.80
2019-04-26T05:24:05.261Z,10.90
2019-04-26T05:27:39.911Z,10.80
2019-04-26T05:31:01.814Z,10.80
2019-04-26T05:34:03.700Z,10.90
2019-04-26T05:37:17.384Z,10.80
2019-04-26T05:40:17.819Z,11.20
2019-04-26T05:43:32.341Z,11.30
2019-04-26T05:46:51.689Z,11.50
2019-04-26T05:50:33.763Z,11.70
2019-04-26T05:54:04.328Z,11.80
2019-04-26T05:57:04.450Z,11.90
2019-04-26T06:00:01.116Z,11.70
2019-04-26T06:03:01.243Z,11.80
2019-04-26T06:06:27.915Z,11.50
2019-04-26T06:09:56.505Z,11.40
2019-04-26T06:13:09.569Z,11.50
2019-04-26T06:16:00.085Z,11.50
2019-04-26T06:18:59.593Z,11.30
2019-04-26T06:21:47.073Z,11.50
2019-04-26T06:25:28.738Z,11.40
2019-04-26T06:28:07.254Z,11.90
2019-04-26T06:31:13.788Z,11.20
2019-04-26T06:34:06.126Z,11.70
2019-04-26T06:36:51.616Z,11.50
2019-04-26T06:39:40.936Z,12.10
2019-04-26T06:43:00.633Z,12.10
2019-04-26T06:46:32.190Z,12.10
2019-04-26T06:50:03.405Z,12.80
2019-04-26T06:52:38.982Z,12.70
2019-04-26T06:55:35.177Z,13.00
2019-04-26T06:58:45.662Z,13.10
2019-04-26T07:01:43.006Z,13.30
2019-04-26T07:05:05.398Z,13.60
2019-04-26T07:08:03.078Z,13.80
2019-04-26T07:11:09.635Z,13.80
2019-04-26T07:14:07.241Z,13.50
2019-04-26T07:16:49.215Z,14.20
2019-04-26T07:20:12.165Z,14.10
2019-04-26T07:23:34.694Z,13.90
2019-04-26T07:27:22.080Z,13.50
2019-04-26T07:30:53.090Z,13.80
2019-04-26T07:34:07.292Z,14.30
2019-04-26T07:37:35.875Z,14.20
2019-04-26T07:41:15.061Z,14.00
2019-04-26T07:44:28.829Z,14.30
2019-04-26T07:48:16.914Z,14.50
2019-04-26T07:51:56.203Z,14.50
2019-04-26T07:55:22.731Z,14.20
2019-04-26T08:02:21.926Z,14.30
2019-04-26T08:05:05.796Z,14.70
2019-04-26T08:07:40.390Z,15.20
2019-04-26T08:10:15.076Z,15.30
2019-04-26T08:12:51.008Z,15.80
2019-04-26T08:15:55.397Z,15.70
2019-04-26T08:18:36.911Z,15.60
2019-04-26T08:21:18.385Z,15.60
2019-04-26T08:24:02.067Z,16.00
2019-04-26T08:26:33.554Z,15.80
2019-04-26T08:29:06.645Z,16.40
2019-04-26T08:31:38.349Z,16.80
2019-04-26T08:34:12.354Z,17.40
2019-04-26T08:36:52.020Z,17.00
2019-04-26T08:39:32.505Z,17.60
2019-04-26T08:41:57.947Z,18.00
2019-04-26T08:45:04.322Z,17.80
2019-04-26T08:47:53.506Z,17.70
2019-04-26T08:50:27.249Z,17.90
2019-04-26T08:52:59.102Z,18.70
2019-04-26T08:55:29.243Z,18.40
2019-04-26T08:58:05.096Z,18.30
2019-04-26T09:00:47.893Z,18.20
2019-04-26T09:03:27.720Z,18.60
2019-04-26T09:06:13.095Z,18.80
2019-04-26T09:08:44.827Z,19.70
2019-04-26T09:11:25.423Z,19.50
2019-04-26T09:13:49.887Z,19.70
2019-04-26T09:16:20.216Z,19.70
2019-04-26T09:18:54.172Z,19.40
2019-04-26T09:21:28.937Z,19.10
2019-04-26T09:24:26.580Z,19.10
2019-04-26T09:27:08.947Z,18.90
2019-04-26T09:29:56.252Z,19.00
2019-04-26T09:32:29.346Z,18.90
2019-04-26T09:34:57.227Z,19.30
2019-04-26T09:37:25.081Z,19.60
2019-04-26T09:39:53.030Z,19.60
2019-04-26T09:42:39.298Z,19.80
2019-04-26T09:45:22.362Z,19.90
2019-04-26T09:47:54.137Z,20.20
2019-04-26T09:50:36.967Z,20.00
2019-04-26T09:53:05.093Z,19.70
2019-04-26T09:55:35.534Z,19.70
2019-04-26T09:58:02.600Z,19.60
2019-04-26T10:00:31.123Z,20.10
2019-04-26T10:02:59.059Z,20.30
2019-04-26T10:05:26.875Z,20.50
2019-04-26T10:07:54.676Z,20.80
2019-04-26T10:10:31.055Z,20.40
2019-04-26T10:13:06.128Z,20.40
2019-04-26T10:15:50.242Z,20.70
2019-04-26T10:18:20.415Z,20.30
2019-04-26T10:20:48.235Z,20.80
2019-04-26T10:23:17.158Z,20.70
2019-04-26T10:25:47.319Z,21.20
2019-04-26T10:28:17.090Z,20.80
2019-04-26T10:30:45.091Z,21.00
2019-04-26T10:33:14.164Z,20.90
2019-04-26T10:35:43.016Z,20.80
2019-04-26T10:38:10.733Z,20.90
2019-04-26T10:40:38.722Z,20.30
2019-04-26T10:43:07.527Z,20.10
2019-04-26T10:45:35.600Z,20.90
2019-04-26T10:48:04.153Z,20.80
2019-04-26T10:50:33.086Z,21.50
2019-04-26T10:53:20.673Z,21.60
2019-04-26T10:56:01.831Z,21.70
2019-04-26T10:58:36.565Z,21.50
2019-04-26T11:01:09.954Z,21.60
2019-04-26T11:03:39.723Z,21.50
2019-04-26T11:06:09.160Z,21.60
2019-04-26T11:08:36.887Z,21.80
2019-04-26T11:11:08.390Z,21.50
2019-04-26T11:13:36.555Z,21.50
2019-04-26T11:16:07.134Z,21.60
2019-04-26T11:18:35.107Z,22.10
2019-04-26T11:21:04.013Z,22.20
2019-04-26T11:23:31.751Z,22.30
2019-04-26T11:26:01.744Z,22.40
2019-04-26T11:28:29.440Z,22.70
2019-04-26T11:30:57.582Z,21.80
2019-04-26T11:33:27.423Z,21.70
2019-04-26T11:35:55.332Z,21.60
2019-04-26T11:38:26.980Z,21.70
2019-04-26T11:41:05.361Z,22.10
2019-04-26T11:43:22.462Z,22.20
2019-04-26T11:45:50.564Z,21.80
2019-04-26T11:48:18.601Z,21.70
2019-04-26T11:50:48.176Z,21.40
2019-04-26T11:53:16.323Z,21.50
2019-04-26T11:55:52.410Z,20.90
2019-04-26T11:58:22.672Z,21.00
2019-04-26T12:00:55.576Z,20.90
2019-04-26T12:03:24.893Z,21.40
2019-04-26T12:06:17.125Z,20.90
2019-04-26T12:08:47.602Z,21.00
2019-04-26T12:11:18.973Z,21.40
2019-04-26T12:13:45.238Z,21.60
2019-04-26T12:16:14.633Z,21.60
2019-04-26T12:18:44.141Z,21.70
2019-04-26T12:21:12.539Z,22.30
2019-04-26T12:23:40.334Z,22.90
2019-04-26T12:26:08.209Z,22.50
2019-04-26T12:28:36.343Z,22.50
2019-04-26T12:31:05.730Z,22.90
2019-04-26T12:33:33.523Z,23.00
2019-04-26T12:36:01.286Z,22.40
2019-04-26T12:38:31.032Z,22.30
2019-04-26T12:40:59.008Z,21.70
2019-04-26T12:43:26.940Z,21.50
2019-04-26T12:46:06.696Z,21.50
2019-04-26T12:48:34.373Z,21.60
2019-04-26T12:51:02.361Z,21.60
2019-04-26T12:53:31.269Z,21.90
2019-04-26T12:56:00.170Z,21.70
2019-04-26T12:58:29.937Z,21.70
2019-04-26T13:00:59.791Z,21.70
2019-04-26T13:03:30.414Z,21.80
2019-04-26T13:05:59.111Z,22.00
2019-04-26T13:08:27.092Z,22.20
2019-04-26T13:11:07.913Z,22.40
2019-04-26T13:14:16.093Z,22.30
2019-04-26T13:16:57.228Z,22.40
2019-04-26T13:19:25.111Z,22.10
2019-04-26T13:21:53.057Z,22.20
2019-04-26T13:24:20.968Z,22.50
2019-04-26T13:26:50.175Z,22.30
2019-04-26T13:29:19.445Z,21.70
2019-04-26T13:31:47.344Z,22.10
2019-04-26T13:34:15.173Z,22.10
2019-04-26T13:36:42.889Z,21.50
2019-04-26T13:39:13.378Z,22.20
2019-04-26T13:41:42.177Z,21.70
2019-04-26T13:44:10.311Z,22.30
2019-04-26T13:46:57.760Z,22.10
2019-04-26T13:49:33.523Z,22.10
2019-04-26T13:52:01.544Z,22.10
2019-04-26T13:54:29.278Z,22.30
2019-04-26T13:56:57.246Z,22.30
2019-04-26T13:59:28.173Z,22.40
2019-04-26T14:01:54.718Z,22.40
2019-04-26T14:04:22.501Z,22.30
2019-04-26T14:06:50.430Z,22.40
2019-04-26T14:09:18.328Z,22.30
2019-04-26T14:11:46.058Z,22.60
2019-04-26T14:14:14.042Z,22.30
2019-04-26T14:16:42.457Z,22.20
2019-04-26T14:19:14.912Z,22.20
2019-04-26T14:21:39.865Z,22.10
2019-04-26T14:24:25.214Z,22.30
2019-04-26T14:26:56.163Z,22.30
2019-04-26T14:29:24.248Z,22.30
2019-04-26T14:31:53.156Z,22.40
2019-04-26T14:34:21.084Z,22.20
2019-04-26T14:36:49.742Z,22.40
2019-04-26T14:39:20.973Z,22.30
2019-04-26T14:41:47.766Z,22.10
2019-04-26T14:44:16.201Z,22.30
2019-04-26T14:46:49.068Z,21.50
2019-04-26T14:49:13.867Z,21.60
2019-04-26T14:51:41.595Z,21.50
2019-04-26T14:54:11.532Z,21.50
2019-04-26T14:56:51.641Z,21.50
2019-04-26T14:59:10.278Z,21.60
2019-04-26T15:02:06.388Z,21.40
2019-04-26T15:04:47.849Z,21.40
2019-04-26T15:07:17.781Z,21.60
2019-04-26T15:09:45.538Z,21.60
2019-04-26T15:12:15.769Z,21.50
2019-04-26T15:14:43.340Z,21.60
2019-04-26T15:17:12.468Z,21.60
2019-04-26T15:19:45.904Z,21.60
2019-04-26T15:22:12.083Z,21.60
2019-04-26T15:24:40.029Z,21.80
2019-04-26T15:27:07.739Z,21.70
2019-04-26T15:29:35.788Z,21.40
2019-04-26T15:32:05.299Z,20.80
2019-04-26T15:34:33.381Z,21.00
2019-04-26T15:37:02.988Z,20.80
2019-04-26T15:39:38.491Z,20.90
2019-04-26T15:42:17.724Z,20.80
2019-04-26T15:44:50.937Z,20.90
2019-04-26T15:47:44.118Z,21.40
2019-04-26T15:50:50.518Z,21.50
2019-04-26T15:53:14.557Z,21.60
2019-04-26T15:55:43.580Z,21.50
2019-04-26T15:58:11.641Z,21.50
2019-04-26T16:00:39.582Z,21.70
2019-04-26T16:03:07.671Z,22.20
2019-04-26T16:05:38.502Z,22.30
2019-04-26T16:08:06.458Z,22.20
2019-04-26T16:10:38.238Z,22.20
2019-04-26T16:13:18.207Z,21.70
2019-04-26T16:15:33.959Z,21.70
2019-04-26T16:18:04.241Z,21.60
2019-04-26T16:20:37.597Z,22.10
2019-04-26T16:23:06.295Z,21.70
2019-04-26T16:25:34.450Z,21.70
2019-04-26T16:28:22.850Z,22.40
2019-04-26T16:31:16.176Z,22.30
2019-04-26T16:33:44.868Z,22.30
2019-04-26T16:36:12.734Z,21.60
2019-04-26T16:38:41.774Z,21.40
2019-04-26T16:41:13.783Z,21.40
2019-04-26T16:43:50.936Z,21.50
2019-04-26T16:46:12.649Z,21.30
2019-04-26T16:48:44.199Z,20.90
2019-04-26T16:51:10.695Z,21.00
2019-04-26T16:54:02.138Z,21.40
2019-04-26T16:56:08.366Z,21.60
2019-04-26T16:58:38.299Z,20.90
2019-04-26T17:01:10.031Z,21.00
2019-04-26T17:03:56.939Z,21.50
2019-04-26T17:06:24.685Z,20.90
2019-04-26T17:09:00.879Z,20.70
2019-04-26T17:11:22.950Z,20.90
2019-04-26T17:13:56.446Z,20.30
2019-04-26T17:16:22.464Z,20.30
2019-04-26T17:18:50.446Z,20.70
2019-04-26T17:21:23.856Z,20.10
2019-04-26T17:24:07.370Z,20.30
2019-04-26T17:26:36.314Z,20.20
2019-04-26T17:29:03.137Z,19.60
2019-04-26T17:31:31.658Z,19.70
2019-04-26T17:33:59.566Z,19.60
2019-04-26T17:36:27.459Z,20.10
2019-04-26T17:38:55.190Z,19.70
2019-04-26T17:41:23.083Z,20.10
2019-04-26T17:43:56.060Z,20.30
2019-04-26T17:46:21.628Z,19.70
2019-04-26T17:48:50.862Z,20.10
2019-04-26T17:51:22.411Z,20.10
2019-04-26T17:53:49.506Z,20.10
2019-04-26T17:56:18.451Z,19.90
2019-04-26T17:58:53.109Z,19.50
2019-04-26T18:01:41.171Z,19.50
2019-04-26T18:03:51.294Z,19.60
2019-04-26T18:06:15.633Z,19.50
2019-04-26T18:08:51.901Z,19.60
2019-04-26T18:11:19.530Z,19.50
2019-04-26T18:13:43.225Z,19.60
2019-04-26T18:16:17.799Z,19.50
2019-04-26T18:19:05.355Z,19.60
2019-04-26T18:22:04.813Z,19.10
2019-04-26T18:24:35.013Z,18.90
2019-04-26T18:27:08.828Z,18.80
2019-04-26T18:29:36.525Z,18.20
2019-04-26T18:32:05.805Z,18.70
2019-04-26T18:34:37.168Z,18.50
2019-04-26T18:37:07.125Z,18.30
2019-04-26T18:39:34.039Z,18.40
2019-04-26T18:42:02.968Z,18.90
2019-04-26T18:44:36.938Z,18.50
2019-04-26T18:47:14.698Z,18.30
2019-04-26T18:49:43.453Z,18.20
2019-04-26T18:52:11.147Z,18.30
2019-04-26T18:54:47.864Z,18.20
2019-04-26T18:57:17.091Z,17.70
2019-04-26T18:59:50.853Z,17.60
2019-04-26T19:02:18.751Z,17.90
2019-04-26T19:04:48.117Z,17.80
2019-04-26T19:07:31.009Z,17.50
2019-04-26T19:09:58.735Z,17.70
2019-04-26T19:12:23.364Z,17.70
2019-04-26T19:15:21.827Z,17.10
2019-04-26T19:18:05.306Z,17.50
2019-04-26T19:21:03.060Z,17.60
2019-04-26T19:23:32.091Z,17.70
2019-04-26T19:26:01.794Z,17.30
2019-04-26T19:28:31.221Z,17.60
2019-04-26T19:30:58.962Z,17.60
2019-04-26T19:33:26.876Z,17.20
2019-04-26T19:35:54.786Z,16.90
2019-04-26T19:38:23.786Z,16.90
2019-04-26T19:40:52.071Z,17.10
2019-04-26T19:43:30.732Z,17.60
2019-04-26T19:45:57.866Z,16.90
2019-04-26T19:48:33.302Z,16.60
2019-04-26T19:51:09.402Z,17.20
2019-04-26T19:53:51.758Z,16.80
2019-04-26T19:56:31.460Z,17.20
2019-04-26T19:58:59.618Z,17.10
2019-04-26T20:01:27.539Z,17.10
2019-04-26T20:03:55.523Z,16.90
2019-04-26T20:06:26.791Z,16.80
2019-04-26T20:08:55.493Z,16.70
2019-04-26T20:11:23.234Z,16.80
2019-04-26T20:13:55.160Z,16.90
2019-04-26T20:16:22.316Z,16.30
2019-04-26T20:18:53.188Z,16.70
2019-04-26T20:21:21.862Z,16.40
2019-04-26T20:23:52.672Z,16.70
2019-04-26T20:26:22.448Z,16.20
2019-04-26T20:28:51.362Z,16.10
2019-04-26T20:31:27.422Z,16.10
2019-04-26T20:33:59.213Z,15.80
2019-04-26T20:36:27.229Z,15.70
2019-04-26T20:38:55.485Z,15.70
2019-04-26T20:41:23.583Z,15.90
2019-04-26T20:44:04.434Z,15.80
2019-04-26T20:46:24.350Z,15.70
2019-04-26T20:48:52.447Z,15.50
2019-04-26T20:51:22.372Z,15.30
2019-04-26T20:53:49.928Z,15.40
2019-04-26T20:56:19.454Z,15.30
2019-04-26T20:58:47.377Z,15.30
2019-04-26T21:01:16.322Z,15.20
2019-04-26T21:03:45.890Z,15.20
2019-04-26T21:06:13.864Z,15.20
2019-04-26T21:08:42.393Z,14.50
2019-04-26T21:11:11.206Z,15.80
2019-04-26T21:13:41.525Z,15.40
2019-04-26T21:16:11.230Z,15.30
2019-04-26T21:18:40.206Z,15.20
2019-04-26T21:21:10.563Z,15.10
2019-04-26T21:23:40.146Z,15.40
2019-04-26T21:26:32.203Z,14.80
2019-04-26T21:29:20.503Z,15.30
2019-04-26T21:31:55.427Z,15.10
2019-04-26T21:34:26.583Z,15.20
2019-04-26T21:37:17.336Z,15.20
2019-04-26T21:40:06.116Z,15.30
2019-04-26T21:42:34.000Z,15.30
2019-04-26T21:45:03.556Z,15.10
2019-04-26T21:47:36.999Z,15.20
2019-04-26T21:50:04.298Z,15.30
2019-04-26T21:52:32.047Z,15.30
2019-04-26T21:54:59.746Z,15.30
2019-04-26T21:57:34.996Z,15.40
2019-04-26T22:00:07.353Z,15.20
2019-04-26T22:02:37.480Z,15.30
2019-04-26T22:05:08.140Z,15.10
2019-04-26T22:07:39.160Z,15.20
2019-04-26T22:10:14.246Z,14.90
2019-04-26T22:12:43.224Z,14.60
2019-04-26T22:15:37.485Z,15.20
2019-04-26T22:18:15.295Z,15.00
2019-04-26T22:20:55.570Z,15.10
2019-04-26T22:23:47.654Z,14.60
2019-04-26T22:26:16.654Z,14.90
2019-04-26T22:28:44.708Z,14.60
2019-04-26T22:31:13.379Z,14.70
2019-04-26T22:33:42.838Z,14.20
2019-04-26T22:36:13.194Z,14.50
2019-04-26T22:38:42.784Z,14.10
2019-04-26T22:41:10.886Z,14.30
2019-04-26T22:43:55.933Z,14.10
2019-04-26T22:46:47.427Z,14.30
2019-04-26T22:49:13.219Z,14.30
2019-04-26T22:51:41.255Z,14.20
2019-04-26T22:54:08.944Z,14.30
2019-04-26T22:56:38.276Z,14.00
2019-04-26T22:59:08.049Z,14.30
2019-04-26T23:01:39.155Z,13.30
2019-04-26T23:04:08.637Z,14.00
2019-04-26T23:06:36.477Z,14.30
2019-04-26T23:09:07.458Z,14.00
2019-04-26T23:11:39.496Z,13.90
2019-04-26T23:14:18.921Z,14.20
2019-04-26T23:17:18.912Z,14.00
2019-04-26T23:19:57.542Z,13.90
2019-04-26T23:22:30.971Z,13.70
2019-04-26T23:24:58.096Z,13.60
2019-04-26T23:27:25.044Z,13.50
2019-04-26T23:29:55.086Z,13.60
2019-04-26T23:32:23.453Z,13.60
2019-04-26T23:34:51.344Z,13.50
2019-04-26T23:37:19.391Z,13.50
2019-04-26T23:39:49.798Z,13.70
2019-04-26T23:42:18.615Z,13.10
2019-04-26T23:44:46.476Z,13.10
2019-04-26T23:47:21.064Z,13.40
2019-04-26T23:49:44.157Z,13.00
2019-04-26T23:52:14.503Z,13.30
2019-04-26T23:54:41.839Z,13.10
2019-04-26T23:57:09.525Z,13.30
2019-04-26T23:59:37.607Z,13.10
